createdAt,value
2022-08-01T00:05:43.936Z,16.22
2022-08-01T00:08:11.450Z,16.35
2022-08-01T00:10:39.114Z,16.54
2022-08-01T00:13:06.668Z,16.67
2022-08-01T00:15:34.352Z,16.68
2022-08-01T00:18:01.983Z,16.76
2022-08-01T00:20:29.940Z,16.84
2022-08-01T00:27:56.483Z,16.74
2022-08-01T00:30:24.471Z,16.72
2022-08-01T00:32:52.004Z,16.48
2022-08-01T00:35:19.941Z,16.54
2022-08-01T00:37:47.501Z,16.66
2022-08-01T00:40:15.088Z,16.61
2022-08-01T00:42:43.763Z,16.39
2022-08-01T00:49:23.923Z,16.41
2022-08-01T00:51:51.668Z,16.49
2022-08-01T00:54:19.744Z,16.53
2022-08-01T00:56:47.768Z,16.39
2022-08-01T00:59:18.074Z,16.05
2022-08-01T01:01:49.914Z,15.85
2022-08-01T01:04:18.007Z,15.72
2022-08-01T01:09:34.483Z,15.44
2022-08-01T01:12:12.385Z,15.36
2022-08-01T01:14:46.745Z,15.41
2022-08-01T01:17:17.526Z,15.39
2022-08-01T01:20:01.904Z,15.38
2022-08-01T01:22:48.585Z,15.53
2022-08-01T01:28:34.828Z,15.73
2022-08-01T01:31:07.355Z,15.94
2022-08-01T01:33:45.201Z,16.08
2022-08-01T01:36:17.652Z,15.91
2022-08-01T01:38:47.842Z,15.62
2022-08-01T01:41:18.067Z,15.43
2022-08-01T01:43:47.269Z,15.22
2022-08-01T01:51:21.968Z,15.03
2022-08-01T01:53:49.797Z,14.97
2022-08-01T01:56:18.276Z,15.05
2022-08-01T01:58:49.791Z,14.96
2022-08-01T02:01:58.748Z,14.88
2022-08-01T02:04:07.411Z,14.83
2022-08-01T02:06:36.331Z,14.79
2022-08-01T02:14:09.117Z,14.65
2022-08-01T02:16:40.695Z,14.67
2022-08-01T02:19:08.730Z,14.66
2022-08-01T02:21:42.449Z,14.67
2022-08-01T02:24:15.718Z,14.77
2022-08-01T02:26:47.469Z,14.74
2022-08-01T02:29:22.690Z,14.94
2022-08-01T02:36:50.402Z,15.15
2022-08-01T02:39:22.187Z,15.27
2022-08-01T02:41:55.656Z,15.20
2022-08-01T02:44:25.974Z,15.19
2022-08-01T02:46:58.125Z,15.13
2022-08-01T02:49:29.012Z,15.27
2022-08-01T02:52:00.068Z,15.36
2022-08-01T02:59:02.703Z,15.29
2022-08-01T03:01:33.030Z,15.18
2022-08-01T03:04:00.954Z,15.16
2022-08-01T03:06:30.255Z,15.15
2022-08-01T03:08:59.265Z,15.15
2022-08-01T03:11:28.896Z,15.23
2022-08-01T03:13:58.988Z,15.24
2022-08-01T03:21:28.911Z,15.33
2022-08-01T03:23:58.976Z,15.42
2022-08-01T03:26:29.766Z,15.44
2022-08-01T03:29:03.043Z,15.46
2022-08-01T03:31:31.375Z,15.47
2022-08-01T03:34:04.027Z,15.48
2022-08-01T03:39:13.700Z,15.53
2022-08-01T03:41:44.865Z,15.43
2022-08-01T03:44:16.733Z,15.02
2022-08-01T03:46:48.322Z,14.80
2022-08-01T03:49:19.620Z,14.62
2022-08-01T03:51:49.933Z,14.55
2022-08-01T03:54:29.558Z,14.64
2022-08-01T04:01:24.210Z,14.51
2022-08-01T04:03:52.078Z,14.73
2022-08-01T04:06:19.780Z,14.71
2022-08-01T04:08:55.795Z,14.91
2022-08-01T04:11:25.252Z,14.90
2022-08-01T04:13:53.893Z,15.14
2022-08-01T04:16:24.032Z,15.19
2022-08-01T04:21:36.696Z,14.87
2022-08-01T04:24:08.772Z,14.80
2022-08-01T04:26:38.681Z,14.82
2022-08-01T04:29:07.730Z,14.82
2022-08-01T04:31:37.079Z,14.91
2022-08-01T04:34:06.735Z,14.97
2022-08-01T04:39:19.047Z,15.12
2022-08-01T04:41:47.531Z,15.32
2022-08-01T04:44:15.514Z,15.45
2022-08-01T04:46:43.523Z,15.47
2022-08-01T04:49:12.294Z,15.60
2022-08-01T04:51:51.959Z,15.74
2022-08-01T04:54:22.034Z,15.88
2022-08-01T05:01:53.060Z,16.65
2022-08-01T05:04:20.533Z,16.74
2022-08-01T05:06:47.932Z,16.77
2022-08-01T05:09:15.451Z,16.81
2022-08-01T05:11:42.887Z,16.93
2022-08-01T05:14:10.341Z,17.12
2022-08-01T05:16:38.030Z,17.26
2022-08-01T05:23:43.088Z,17.80
2022-08-01T05:26:11.632Z,18.00
2022-08-01T05:28:42.490Z,18.25
2022-08-01T05:31:10.264Z,18.62
2022-08-01T05:33:37.696Z,18.85
2022-08-01T05:36:06.052Z,19.02
2022-08-01T05:38:33.628Z,19.36
2022-08-01T05:45:50.793Z,20.11
2022-08-01T05:48:18.330Z,20.25
2022-08-01T05:50:46.409Z,20.40
2022-08-01T05:53:13.929Z,20.66
2022-08-01T05:55:41.404Z,20.77
2022-08-01T05:58:08.983Z,20.93
2022-08-01T06:00:40.096Z,21.08
2022-08-01T06:08:10.672Z,21.36
2022-08-01T06:10:38.085Z,21.38
2022-08-01T06:13:05.550Z,21.57
2022-08-01T06:15:33.390Z,21.64
2022-08-01T06:18:00.861Z,21.72
2022-08-01T06:20:28.441Z,21.76
2022-08-01T06:22:55.915Z,21.93
2022-08-01T06:28:01.712Z,22.32
2022-08-01T06:30:29.369Z,22.43
2022-08-01T06:32:59.001Z,22.50
2022-08-01T06:35:27.204Z,22.64
2022-08-01T06:37:54.948Z,22.73
2022-08-01T06:40:22.566Z,22.90
2022-08-01T06:42:50.271Z,22.76
2022-08-01T06:49:57.485Z,23.27
2022-08-01T06:52:25.363Z,23.40
2022-08-01T06:54:53.532Z,23.44
2022-08-01T06:57:21.333Z,23.41
2022-08-01T06:59:54.126Z,23.59
2022-08-01T07:02:22.154Z,23.66
2022-08-01T07:04:49.658Z,23.85
2022-08-01T07:11:59.529Z,23.82
2022-08-01T07:14:27.218Z,23.93
2022-08-01T07:16:54.955Z,23.85
2022-08-01T07:19:22.575Z,23.86
2022-08-01T07:21:50.288Z,23.84
2022-08-01T07:24:19.593Z,23.92
2022-08-01T07:26:53.436Z,24.05
2022-08-01T07:33:55.445Z,24.26
2022-08-01T07:36:23.041Z,24.26
2022-08-01T07:38:50.558Z,24.14
2022-08-01T07:41:18.280Z,24.22
2022-08-01T07:43:56.059Z,24.44
2022-08-01T07:46:25.408Z,24.49
2022-08-01T07:48:53.112Z,24.33
2022-08-01T07:56:20.182Z,24.25
2022-08-01T07:58:48.765Z,24.24
2022-08-01T08:01:16.198Z,24.36
2022-08-01T08:03:43.633Z,24.41
2022-08-01T08:06:11.162Z,24.23
2022-08-01T08:08:38.699Z,24.51
2022-08-01T08:11:06.216Z,24.52
2022-08-01T08:19:22.672Z,24.73
2022-08-01T08:22:07.752Z,24.71
2022-08-01T08:24:35.640Z,24.82
2022-08-01T08:27:03.294Z,24.94
2022-08-01T08:29:32.920Z,24.96
2022-08-01T08:32:01.217Z,24.93
2022-08-01T08:34:30.017Z,24.79
2022-08-01T08:41:37.831Z,25.25
2022-08-01T08:44:10.031Z,25.37
2022-08-01T08:46:44.270Z,25.48
2022-08-01T08:49:13.282Z,25.60
2022-08-01T08:51:44.472Z,25.47
2022-08-01T08:54:13.700Z,25.60
2022-08-01T08:56:42.719Z,25.76
2022-08-01T09:04:13.767Z,25.73
2022-08-01T09:06:41.486Z,26.04
2022-08-01T09:09:10.102Z,26.06
2022-08-01T09:11:37.934Z,25.83
2022-08-01T09:14:08.213Z,26.15
2022-08-01T09:16:38.565Z,26.14
2022-08-01T09:19:16.120Z,26.24
2022-08-01T09:26:00.938Z,26.38
2022-08-01T09:28:29.701Z,26.54
2022-08-01T09:30:57.456Z,26.46
2022-08-01T09:33:25.578Z,26.59
2022-08-01T09:35:56.590Z,26.54
2022-08-01T09:38:27.595Z,26.47
2022-08-01T09:40:58.545Z,26.53
2022-08-01T09:48:12.959Z,26.65
2022-08-01T09:50:42.039Z,26.86
2022-08-01T09:53:10.058Z,26.93
2022-08-01T09:55:52.937Z,27.03
2022-08-01T09:58:21.070Z,26.54
2022-08-01T10:01:00.227Z,26.82
2022-08-01T10:03:30.121Z,26.74
2022-08-01T10:11:12.150Z,27.11
2022-08-01T10:13:41.033Z,27.20
2022-08-01T10:16:10.057Z,27.32
2022-08-01T10:18:42.003Z,27.43
2022-08-01T10:21:11.422Z,27.66
2022-08-01T10:23:40.171Z,27.56
2022-08-01T10:29:45.939Z,27.73
2022-08-01T10:32:17.204Z,28.15
2022-08-01T10:34:45.833Z,27.99
2022-08-01T10:37:15.087Z,27.81
2022-08-01T10:39:43.840Z,27.59
2022-08-01T10:42:15.584Z,27.67
2022-08-01T10:44:46.782Z,27.80
2022-08-01T10:52:20.036Z,27.49
2022-08-01T10:54:52.244Z,27.76
2022-08-01T10:57:23.239Z,28.10
2022-08-01T11:00:00.905Z,28.23
2022-08-01T11:02:33.993Z,28.23
2022-08-01T11:05:04.311Z,27.90
2022-08-01T11:07:54.853Z,28.02
2022-08-01T11:15:29.037Z,28.36
2022-08-01T11:18:03.428Z,28.59
2022-08-01T11:20:34.167Z,28.43
2022-08-01T11:23:28.075Z,28.06
2022-08-01T11:26:17.431Z,27.93
2022-08-01T11:29:05.057Z,28.08
2022-08-01T11:35:02.960Z,28.12
2022-08-01T11:37:34.534Z,28.03
2022-08-01T11:40:16.566Z,27.96
2022-08-01T11:42:45.192Z,28.39
2022-08-01T11:45:18.091Z,28.47
2022-08-01T11:47:49.810Z,28.43
2022-08-01T11:54:05.906Z,28.93
2022-08-01T11:56:34.250Z,28.73
2022-08-01T11:59:01.718Z,28.62
2022-08-01T12:01:31.514Z,28.92
2022-08-01T12:03:59.081Z,29.77
2022-08-01T12:06:29.042Z,30.07
2022-08-01T12:09:15.405Z,30.67
2022-08-01T12:16:33.231Z,31.13
2022-08-01T12:19:01.143Z,31.31
2022-08-01T12:21:28.595Z,31.42
2022-08-01T12:24:02.372Z,31.82
2022-08-01T12:26:41.351Z,31.57
2022-08-01T12:29:08.821Z,31.72
2022-08-01T12:31:37.827Z,32.19
2022-08-01T12:36:47.709Z,31.92
2022-08-01T12:39:15.367Z,32.10
2022-08-01T12:41:44.804Z,31.82
2022-08-01T12:44:15.579Z,31.73
2022-08-01T12:46:44.596Z,32.03
2022-08-01T12:49:12.197Z,31.84
2022-08-01T12:51:40.108Z,30.84
2022-08-01T12:59:25.945Z,31.14
2022-08-01T13:01:59.224Z,31.08
2022-08-01T13:04:27.187Z,30.81
2022-08-01T13:06:55.378Z,31.28
2022-08-01T13:09:22.835Z,31.82
2022-08-01T13:11:58.898Z,32.27
2022-08-01T13:14:33.555Z,32.38
2022-08-01T13:21:56.391Z,32.30
2022-08-01T13:24:26.546Z,32.23
2022-08-01T13:26:59.039Z,31.17
2022-08-01T13:29:34.397Z,30.52
2022-08-01T13:32:13.169Z,30.46
2022-08-01T13:35:02.317Z,31.14
2022-08-01T13:37:32.415Z,31.45
2022-08-01T13:45:04.055Z,31.18
2022-08-01T13:48:03.334Z,30.19
2022-08-01T13:50:29.692Z,30.22
2022-08-01T13:52:57.227Z,30.82
2022-08-01T13:55:24.742Z,31.61
2022-08-01T13:57:52.227Z,32.10
2022-08-01T14:00:21.231Z,32.49
2022-08-01T14:07:48.542Z,31.67
2022-08-01T14:10:19.335Z,30.99
2022-08-01T14:12:48.573Z,30.18
2022-08-01T14:15:36.500Z,29.47
2022-08-01T14:18:05.913Z,29.12
2022-08-01T14:20:34.028Z,28.99
2022-08-01T14:23:02.867Z,29.03
2022-08-01T14:28:08.441Z,28.90
2022-08-01T14:30:36.040Z,29.27
2022-08-01T14:33:04.150Z,29.94
2022-08-01T14:36:01.758Z,30.04
2022-08-01T14:38:21.866Z,30.16
2022-08-01T14:40:59.818Z,30.27
2022-08-01T14:43:33.139Z,30.19
2022-08-01T14:48:44.957Z,29.63
2022-08-01T14:51:12.664Z,29.18
2022-08-01T14:53:41.583Z,28.79
2022-08-01T14:56:14.843Z,28.54
2022-08-01T14:58:42.552Z,28.22
2022-08-01T15:01:10.216Z,28.12
2022-08-01T15:03:38.594Z,27.84
2022-08-01T15:08:44.690Z,27.71
2022-08-01T15:11:12.570Z,27.66
2022-08-01T15:13:42.562Z,27.56
2022-08-01T15:16:11.905Z,27.42
2022-08-01T15:18:42.398Z,27.30
2022-08-01T15:21:14.542Z,27.29
2022-08-01T15:23:50.722Z,27.14
2022-08-01T15:30:56.254Z,26.84
2022-08-01T15:33:24.048Z,26.82
2022-08-01T15:35:52.938Z,26.81
2022-08-01T15:38:21.936Z,26.79
2022-08-01T15:40:49.559Z,26.79
2022-08-01T15:43:17.153Z,26.77
2022-08-01T15:45:47.756Z,26.77
2022-08-01T15:52:57.923Z,26.57
2022-08-01T15:55:25.794Z,26.60
2022-08-01T15:57:53.442Z,26.57
2022-08-01T16:00:21.080Z,26.48
2022-08-01T16:02:48.724Z,26.48
2022-08-01T16:05:20.331Z,26.49
2022-08-01T16:07:59.686Z,26.36
2022-08-01T16:15:36.151Z,26.17
2022-08-01T16:18:05.612Z,26.07
2022-08-01T16:20:33.667Z,26.10
2022-08-01T16:23:01.410Z,25.98
2022-08-01T16:25:29.235Z,26.02
2022-08-01T16:27:56.929Z,25.95
2022-08-01T16:30:25.532Z,25.91
2022-08-01T16:37:06.390Z,25.89
2022-08-01T16:39:35.490Z,25.87
2022-08-01T16:42:03.363Z,25.84
2022-08-01T16:44:33.773Z,25.77
2022-08-01T16:47:03.757Z,25.62
2022-08-01T16:49:31.978Z,25.65
2022-08-01T16:54:39.371Z,25.46
2022-08-01T16:57:08.628Z,25.41
2022-08-01T16:59:41.202Z,25.28
2022-08-01T17:02:10.886Z,25.24
2022-08-01T17:04:38.670Z,25.14
2022-08-01T17:07:06.511Z,25.14
2022-08-01T17:09:34.368Z,25.08
2022-08-01T17:16:57.129Z,25.02
2022-08-01T17:19:26.779Z,25.00
2022-08-01T17:22:01.153Z,24.92
2022-08-01T17:24:28.913Z,24.90
2022-08-01T17:26:56.470Z,24.83
2022-08-01T17:29:24.169Z,24.88
2022-08-01T17:31:52.192Z,24.83
2022-08-01T17:39:23.515Z,24.63
2022-08-01T17:41:51.653Z,24.55
2022-08-01T17:44:19.334Z,24.53
2022-08-01T17:46:47.036Z,24.42
2022-08-01T17:49:14.692Z,24.44
2022-08-01T17:51:42.473Z,24.38
2022-08-01T17:54:11.836Z,24.34
2022-08-01T18:01:38.684Z,24.12
2022-08-01T18:04:13.242Z,24.05
2022-08-01T18:06:58.507Z,23.99
2022-08-01T18:09:26.753Z,23.94
2022-08-01T18:11:54.558Z,23.95
2022-08-01T18:14:22.231Z,23.88
2022-08-01T18:20:06.105Z,23.80
2022-08-01T18:22:34.224Z,23.76
2022-08-01T18:25:08.355Z,23.69
2022-08-01T18:28:23.491Z,23.66
2022-08-01T18:30:25.781Z,23.68
2022-08-01T18:32:54.363Z,23.66
2022-08-01T18:38:45.565Z,23.52
2022-08-01T18:41:13.641Z,23.22
2022-08-01T18:43:41.307Z,22.79
2022-08-01T18:46:09.505Z,22.39
2022-08-01T18:48:37.378Z,22.14
2022-08-01T18:51:08.440Z,21.94
2022-08-01T18:53:38.724Z,21.84
2022-08-01T19:00:14.713Z,21.42
2022-08-01T19:02:42.309Z,21.30
2022-08-01T19:05:10.535Z,21.16
2022-08-01T19:08:04.355Z,21.24
2022-08-01T19:10:26.737Z,21.29
2022-08-01T19:12:54.333Z,20.96
2022-08-01T19:18:01.629Z,20.86
2022-08-01T19:20:29.963Z,20.66
2022-08-01T19:22:57.818Z,20.53
2022-08-01T19:25:25.996Z,20.37
2022-08-01T19:27:57.481Z,20.26
2022-08-01T19:30:25.418Z,20.19
2022-08-01T19:32:56.276Z,20.08
2022-08-01T19:39:47.418Z,20.02
2022-08-01T19:42:14.935Z,19.98
2022-08-01T19:44:44.649Z,19.97
2022-08-01T19:47:13.568Z,19.96
2022-08-01T19:49:41.224Z,19.94
2022-08-01T19:52:09.984Z,20.13
2022-08-01T19:54:41.349Z,20.30
2022-08-01T20:02:08.540Z,20.18
2022-08-01T20:04:36.805Z,20.17
2022-08-01T20:07:04.660Z,20.33
2022-08-01T20:09:33.508Z,20.40
2022-08-01T20:12:01.021Z,20.46
2022-08-01T20:14:28.528Z,20.20
2022-08-01T20:16:56.702Z,19.78
2022-08-01T20:24:29.246Z,19.84
2022-08-01T20:27:01.275Z,19.91
2022-08-01T20:29:29.991Z,19.80
2022-08-01T20:31:58.538Z,19.62
2022-08-01T20:34:26.941Z,19.49
2022-08-01T20:36:56.811Z,19.50
2022-08-01T20:39:25.004Z,19.23
2022-08-01T20:46:09.098Z,18.99
2022-08-01T20:48:36.647Z,18.90
2022-08-01T20:51:16.076Z,18.95
2022-08-01T20:53:45.152Z,18.90
2022-08-01T20:56:17.567Z,18.81
2022-08-01T20:58:58.268Z,18.70
2022-08-01T21:01:30.257Z,18.65
2022-08-01T21:09:05.729Z,18.52
2022-08-01T21:11:40.673Z,18.57
2022-08-01T21:14:12.504Z,18.44
2022-08-01T21:16:46.600Z,18.45
2022-08-01T21:19:20.193Z,18.44
2022-08-01T21:21:54.822Z,18.44
2022-08-01T21:28:54.741Z,18.21
2022-08-01T21:31:23.843Z,18.27
2022-08-01T21:34:00.735Z,18.23
2022-08-01T21:36:31.982Z,18.18
2022-08-01T21:39:00.569Z,18.24
2022-08-01T21:41:56.160Z,18.33
2022-08-01T21:47:43.887Z,18.77
2022-08-01T21:50:11.333Z,18.79
2022-08-01T21:52:44.718Z,18.62
2022-08-01T21:55:34.939Z,18.50
2022-08-01T21:58:28.762Z,18.60
2022-08-01T22:01:03.746Z,18.78
2022-08-01T22:06:23.985Z,18.94
2022-08-01T22:08:53.290Z,18.83
2022-08-01T22:11:23.096Z,18.76
2022-08-01T22:13:54.177Z,18.61
2022-08-01T22:16:22.319Z,18.69
2022-08-01T22:18:50.941Z,18.78
2022-08-01T22:21:18.703Z,18.83
2022-08-01T22:28:15.335Z,18.88
2022-08-01T22:30:43.261Z,18.83
2022-08-01T22:33:16.962Z,18.89
2022-08-01T22:35:46.225Z,18.82
2022-08-01T22:38:13.980Z,18.77
2022-08-01T22:40:49.131Z,18.61
2022-08-01T22:43:38.567Z,18.35
2022-08-01T22:50:56.432Z,17.25
2022-08-01T22:53:32.953Z,17.03
2022-08-01T22:56:08.538Z,16.86
2022-08-01T22:58:36.394Z,16.70
2022-08-01T23:01:09.411Z,16.62
2022-08-01T23:03:40.706Z,16.54
2022-08-01T23:13:19.199Z,16.51
2022-08-01T23:15:52.069Z,16.65
2022-08-01T23:18:21.440Z,16.82
2022-08-01T23:20:50.516Z,16.79
2022-08-01T23:23:18.850Z,16.79
2022-08-01T23:25:59.913Z,16.81
2022-08-01T23:28:29.283Z,16.73
2022-08-01T23:36:07.405Z,16.56
2022-08-01T23:38:35.206Z,16.49
2022-08-01T23:41:14.271Z,16.51
2022-08-01T23:43:51.937Z,16.67
2022-08-01T23:46:19.968Z,16.92
2022-08-01T23:48:47.404Z,17.10
2022-08-01T23:51:24.262Z,17.24
2022-08-01T23:58:55.866Z,16.99
